sensor_id;sensor_type;location;lat;lon;timestamp;pressure;altitude;pressure_sealevel;temperature;humidity
63009;BME280;49099;28.428;-16.488;2023-07-20T00:00:08;98964.84;;;24.27;63.79
63009;BME280;49099;28.428;-16.488;2023-07-20T00:02:35;98964.66;;;24.19;63.12
63009;BME280;49099;28.428;-16.488;2023-07-20T00:05:02;98965.78;;;24.18;63.35
63009;BME280;49099;28.428;-16.488;2023-07-20T00:07:30;98958.34;;;24.15;63.34
63009;BME280;49099;28.428;-16.488;2023-07-20T00:09:57;98963.31;;;24.13;63.44
63009;BME280;49099;28.428;-16.488;2023-07-20T00:12:24;98957.44;;;24.11;62.62
63009;BME280;49099;28.428;-16.488;2023-07-20T00:14:51;98952.00;;;24.11;62.92
63009;BME280;49099;28.428;-16.488;2023-07-20T00:17:20;98950.56;;;24.14;62.82
63009;BME280;49099;28.428;-16.488;2023-07-20T00:19:47;98960.63;;;24.13;62.79
63009;BME280;49099;28.428;-16.488;2023-07-20T00:22:14;98959.34;;;24.11;62.55
63009;BME280;49099;28.428;-16.488;2023-07-20T00:24:42;98951.56;;;24.09;62.67
63009;BME280;49099;28.428;-16.488;2023-07-20T00:27:09;98953.16;;;24.10;62.78
63009;BME280;49099;28.428;-16.488;2023-07-20T00:29:36;98960.16;;;24.11;62.38
63009;BME280;49099;28.428;-16.488;2023-07-20T00:32:04;98958.22;;;24.12;62.83
63009;BME280;49099;28.428;-16.488;2023-07-20T00:34:32;98952.47;;;24.13;62.59
63009;BME280;49099;28.428;-16.488;2023-07-20T00:36:59;98955.19;;;24.13;62.20
63009;BME280;49099;28.428;-16.488;2023-07-20T00:39:26;98955.50;;;24.12;62.27
63009;BME280;49099;28.428;-16.488;2023-07-20T00:41:53;98946.59;;;24.11;62.07
63009;BME280;49099;28.428;-16.488;2023-07-20T00:44:20;98952.13;;;24.15;62.28
63009;BME280;49099;28.428;-16.488;2023-07-20T00:46:48;98953.00;;;24.19;62.11
63009;BME280;49099;28.428;-16.488;2023-07-20T00:49:16;98954.94;;;24.18;62.56
63009;BME280;49099;28.428;-16.488;2023-07-20T00:51:43;98950.31;;;24.19;62.83
63009;BME280;49099;28.428;-16.488;2023-07-20T00:54:11;98953.81;;;24.19;62.79
63009;BME280;49099;28.428;-16.488;2023-07-20T00:56:39;98941.38;;;24.18;62.81
63009;BME280;49099;28.428;-16.488;2023-07-20T00:59:06;98944.09;;;24.18;62.75
63009;BME280;49099;28.428;-16.488;2023-07-20T01:01:33;98939.16;;;24.21;62.76
63009;BME280;49099;28.428;-16.488;2023-07-20T01:04:01;98940.72;;;24.22;62.61
63009;BME280;49099;28.428;-16.488;2023-07-20T01:09:26;98941.97;;;24.12;62.75
63009;BME280;49099;28.428;-16.488;2023-07-20T01:12:12;98942.31;;;24.10;62.80
63009;BME280;49099;28.428;-16.488;2023-07-20T01:14:41;98936.44;;;24.08;62.94
63009;BME280;49099;28.428;-16.488;2023-07-20T01:17:08;98930.34;;;24.11;62.79
63009;BME280;49099;28.428;-16.488;2023-07-20T01:19:35;98927.09;;;24.06;62.88
63009;BME280;49099;28.428;-16.488;2023-07-20T01:30:20;98928.25;;;23.93;62.72
63009;BME280;49099;28.428;-16.488;2023-07-20T01:32:54;98918.19;;;23.93;62.57
63009;BME280;49099;28.428;-16.488;2023-07-20T01:35:28;98916.38;;;23.97;62.56
63009;BME280;49099;28.428;-16.488;2023-07-20T01:37:56;98924.53;;;23.97;62.11
63009;BME280;49099;28.428;-16.488;2023-07-20T01:40:25;98917.06;;;23.94;62.36
63009;BME280;49099;28.428;-16.488;2023-07-20T01:42:53;98918.28;;;23.97;62.14
63009;BME280;49099;28.428;-16.488;2023-07-20T01:45:20;98919.09;;;23.97;61.68
63009;BME280;49099;28.428;-16.488;2023-07-20T01:47:47;98916.81;;;23.99;61.71
63009;BME280;49099;28.428;-16.488;2023-07-20T01:50:15;98911.84;;;24.01;62.07
63009;BME280;49099;28.428;-16.488;2023-07-20T01:52:42;98910.84;;;24.06;62.06
63009;BME280;49099;28.428;-16.488;2023-07-20T01:55:09;98909.13;;;24.01;62.17
63009;BME280;49099;28.428;-16.488;2023-07-20T01:57:36;98912.97;;;24.00;62.04
63009;BME280;49099;28.428;-16.488;2023-07-20T02:00:03;98909.25;;;24.05;62.40
63009;BME280;49099;28.428;-16.488;2023-07-20T02:02:31;98896.81;;;24.04;62.30
63009;BME280;49099;28.428;-16.488;2023-07-20T02:04:58;98904.63;;;24.05;62.34
63009;BME280;49099;28.428;-16.488;2023-07-20T02:07:25;98894.22;;;24.07;62.09
63009;BME280;49099;28.428;-16.488;2023-07-20T02:09:53;98886.09;;;24.07;62.04
63009;BME280;49099;28.428;-16.488;2023-07-20T02:12:20;98891.53;;;24.07;61.84
63009;BME280;49099;28.428;-16.488;2023-07-20T02:14:47;98893.78;;;24.05;62.26
63009;BME280;49099;28.428;-16.488;2023-07-20T02:17:14;98894.47;;;24.02;62.07
63009;BME280;49099;28.428;-16.488;2023-07-20T02:19:42;98886.31;;;24.02;62.14
63009;BME280;49099;28.428;-16.488;2023-07-20T02:22:09;98888.25;;;24.02;61.75
63009;BME280;49099;28.428;-16.488;2023-07-20T02:24:36;98884.97;;;23.96;62.39
63009;BME280;49099;28.428;-16.488;2023-07-20T02:27:03;98879.25;;;23.98;62.23
63009;BME280;49099;28.428;-16.488;2023-07-20T02:29:30;98883.53;;;23.99;61.94
63009;BME280;49099;28.428;-16.488;2023-07-20T02:31:57;98882.63;;;23.95;62.86
63009;BME280;49099;28.428;-16.488;2023-07-20T02:34:25;98880.25;;;23.93;62.65
63009;BME280;49099;28.428;-16.488;2023-07-20T02:36:52;98881.41;;;23.92;62.83
63009;BME280;49099;28.428;-16.488;2023-07-20T02:39:19;98876.19;;;23.87;63.71
63009;BME280;49099;28.428;-16.488;2023-07-20T02:41:46;98873.50;;;23.87;63.39
63009;BME280;49099;28.428;-16.488;2023-07-20T02:44:16;98881.63;;;23.87;63.77
63009;BME280;49099;28.428;-16.488;2023-07-20T02:46:43;98882.09;;;23.77;63.77
63009;BME280;49099;28.428;-16.488;2023-07-20T02:49:10;98871.28;;;23.77;63.90
63009;BME280;49099;28.428;-16.488;2023-07-20T02:51:37;98864.03;;;23.81;63.71
63009;BME280;49099;28.428;-16.488;2023-07-20T02:54:04;98860.66;;;23.84;64.00
63009;BME280;49099;28.428;-16.488;2023-07-20T02:56:32;98870.00;;;23.86;63.49
63009;BME280;49099;28.428;-16.488;2023-07-20T02:59:01;98856.81;;;23.85;63.63
63009;BME280;49099;28.428;-16.488;2023-07-20T03:01:29;98853.66;;;23.83;63.68
63009;BME280;49099;28.428;-16.488;2023-07-20T03:03:57;98849.59;;;23.77;63.51
63009;BME280;49099;28.428;-16.488;2023-07-20T03:06:24;98855.56;;;23.82;63.36
63009;BME280;49099;28.428;-16.488;2023-07-20T03:08:52;98856.47;;;23.86;63.35
63009;BME280;49099;28.428;-16.488;2023-07-20T03:11:20;98857.69;;;23.89;62.70
63009;BME280;49099;28.428;-16.488;2023-07-20T03:13:48;98846.53;;;23.90;62.89
63009;BME280;49099;28.428;-16.488;2023-07-20T03:16:19;98855.78;;;23.89;62.78
63009;BME280;49099;28.428;-16.488;2023-07-20T03:18:47;98847.97;;;23.88;62.74
63009;BME280;49099;28.428;-16.488;2023-07-20T03:21:14;98853.06;;;23.89;62.52
63009;BME280;49099;28.428;-16.488;2023-07-20T03:23:42;98860.84;;;23.91;62.21
63009;BME280;49099;28.428;-16.488;2023-07-20T03:26:09;98855.88;;;23.93;62.17
63009;BME280;49099;28.428;-16.488;2023-07-20T03:28:37;98857.09;;;23.96;62.05
63009;BME280;49099;28.428;-16.488;2023-07-20T03:31:05;98853.59;;;23.95;61.98
63009;BME280;49099;28.428;-16.488;2023-07-20T03:33:32;98857.00;;;23.92;61.85
63009;BME280;49099;28.428;-16.488;2023-07-20T03:36:00;98864.00;;;23.93;62.04
63009;BME280;49099;28.428;-16.488;2023-07-20T03:38:27;98861.28;;;23.93;61.95
63009;BME280;49099;28.428;-16.488;2023-07-20T03:40:55;98859.72;;;23.92;61.82
63009;BME280;49099;28.428;-16.488;2023-07-20T03:43:25;98861.72;;;23.95;61.80
63009;BME280;49099;28.428;-16.488;2023-07-20T03:45:53;98860.59;;;23.96;61.71
63009;BME280;49099;28.428;-16.488;2023-07-20T03:48:24;98857.00;;;23.92;61.40
63009;BME280;49099;28.428;-16.488;2023-07-20T03:50:53;98863.56;;;23.91;61.26
63009;BME280;49099;28.428;-16.488;2023-07-20T03:53:20;98864.78;;;23.94;61.18
63009;BME280;49099;28.428;-16.488;2023-07-20T03:55:49;98858.81;;;23.88;60.75
63009;BME280;49099;28.428;-16.488;2023-07-20T03:58:18;98868.56;;;23.77;60.94
63009;BME280;49099;28.428;-16.488;2023-07-20T04:00:47;98867.44;;;23.78;61.02
63009;BME280;49099;28.428;-16.488;2023-07-20T04:03:14;98852.53;;;23.72;61.07
63009;BME280;49099;28.428;-16.488;2023-07-20T04:05:42;98869.47;;;23.69;60.93
63009;BME280;49099;28.428;-16.488;2023-07-20T04:08:10;98863.63;;;23.67;61.11
63009;BME280;49099;28.428;-16.488;2023-07-20T04:10:38;98861.56;;;23.63;61.18
63009;BME280;49099;28.428;-16.488;2023-07-20T04:13:05;98873.97;;;23.65;61.27
63009;BME280;49099;28.428;-16.488;2023-07-20T04:15:33;98865.75;;;23.61;61.13
63009;BME280;49099;28.428;-16.488;2023-07-20T04:18:00;98864.50;;;23.58;60.86
63009;BME280;49099;28.428;-16.488;2023-07-20T04:20:28;98871.72;;;23.54;61.26
63009;BME280;49099;28.428;-16.488;2023-07-20T04:22:55;98862.72;;;23.50;61.39
63009;BME280;49099;28.428;-16.488;2023-07-20T04:25:22;98864.72;;;23.41;61.49
63009;BME280;49099;28.428;-16.488;2023-07-20T04:27:49;98873.41;;;23.47;61.53
63009;BME280;49099;28.428;-16.488;2023-07-20T04:30:18;98871.28;;;23.52;61.28
63009;BME280;49099;28.428;-16.488;2023-07-20T04:32:47;98872.72;;;23.50;61.09
63009;BME280;49099;28.428;-16.488;2023-07-20T04:35:47;98878.03;;;23.46;61.18
63009;BME280;49099;28.428;-16.488;2023-07-20T04:38:15;98885.94;;;23.39;61.16
63009;BME280;49099;28.428;-16.488;2023-07-20T04:40:45;98888.31;;;23.41;61.21
63009;BME280;49099;28.428;-16.488;2023-07-20T04:43:13;98880.97;;;23.41;61.62
63009;BME280;49099;28.428;-16.488;2023-07-20T04:45:40;98886.50;;;23.45;61.62
63009;BME280;49099;28.428;-16.488;2023-07-20T04:48:14;98896.00;;;23.51;61.76
63009;BME280;49099;28.428;-16.488;2023-07-20T04:50:44;98889.53;;;23.55;61.47
63009;BME280;49099;28.428;-16.488;2023-07-20T04:53:12;98892.69;;;23.57;61.12
63009;BME280;49099;28.428;-16.488;2023-07-20T04:55:40;98889.09;;;23.53;61.33
63009;BME280;49099;28.428;-16.488;2023-07-20T04:58:07;98887.28;;;23.57;61.26
63009;BME280;49099;28.428;-16.488;2023-07-20T05:00:37;98879.84;;;23.54;61.49
63009;BME280;49099;28.428;-16.488;2023-07-20T05:03:04;98880.63;;;23.55;61.71
63009;BME280;49099;28.428;-16.488;2023-07-20T05:05:33;98881.06;;;23.57;61.52
63009;BME280;49099;28.428;-16.488;2023-07-20T05:08:00;98891.59;;;23.58;61.77
63009;BME280;49099;28.428;-16.488;2023-07-20T05:10:27;98881.66;;;23.62;61.65
63009;BME280;49099;28.428;-16.488;2023-07-20T05:12:54;98877.81;;;23.63;61.71
63009;BME280;49099;28.428;-16.488;2023-07-20T05:15:21;98884.72;;;23.61;61.79
63009;BME280;49099;28.428;-16.488;2023-07-20T05:17:48;98885.94;;;23.63;61.78
63009;BME280;49099;28.428;-16.488;2023-07-20T05:20:16;98886.38;;;23.66;61.70
63009;BME280;49099;28.428;-16.488;2023-07-20T05:22:43;98892.28;;;23.68;61.32
63009;BME280;49099;28.428;-16.488;2023-07-20T05:25:11;98891.16;;;23.69;61.49
63009;BME280;49099;28.428;-16.488;2023-07-20T05:27:39;98900.41;;;23.68;61.40
63009;BME280;49099;28.428;-16.488;2023-07-20T05:30:07;98895.78;;;23.68;60.92
63009;BME280;49099;28.428;-16.488;2023-07-20T05:32:37;98886.38;;;23.66;61.21
63009;BME280;49099;28.428;-16.488;2023-07-20T05:35:05;98885.59;;;23.65;61.44
63009;BME280;49099;28.428;-16.488;2023-07-20T05:37:32;98884.16;;;23.68;61.38
63009;BME280;49099;28.428;-16.488;2023-07-20T05:39:59;98885.28;;;23.67;61.78
63009;BME280;49099;28.428;-16.488;2023-07-20T05:42:27;98888.88;;;23.71;62.07
63009;BME280;49099;28.428;-16.488;2023-07-20T05:44:54;98888.22;;;23.74;61.61
63009;BME280;49099;28.428;-16.488;2023-07-20T05:47:22;98888.31;;;23.77;62.15
63009;BME280;49099;28.428;-16.488;2023-07-20T05:49:49;98880.28;;;23.81;61.71
63009;BME280;49099;28.428;-16.488;2023-07-20T05:52:16;98887.63;;;23.80;61.92
63009;BME280;49099;28.428;-16.488;2023-07-20T05:54:43;98893.16;;;23.84;61.96
63009;BME280;49099;28.428;-16.488;2023-07-20T05:57:11;98891.22;;;23.84;61.72
63009;BME280;49099;28.428;-16.488;2023-07-20T05:59:38;98898.78;;;23.91;61.46
63009;BME280;49099;28.428;-16.488;2023-07-20T06:02:07;98896.31;;;23.86;61.31
63009;BME280;49099;28.428;-16.488;2023-07-20T06:04:35;98900.38;;;23.80;61.73
63009;BME280;49099;28.428;-16.488;2023-07-20T06:07:02;98902.97;;;23.76;61.82
63009;BME280;49099;28.428;-16.488;2023-07-20T06:09:30;98900.63;;;23.75;63.12
63009;BME280;49099;28.428;-16.488;2023-07-20T06:11:57;98897.56;;;23.76;63.55
63009;BME280;49099;28.428;-16.488;2023-07-20T06:14:24;98900.38;;;23.80;63.49
63009;BME280;49099;28.428;-16.488;2023-07-20T06:16:52;98898.91;;;23.82;63.04
63009;BME280;49099;28.428;-16.488;2023-07-20T06:19:19;98902.06;;;23.84;63.18
63009;BME280;49099;28.428;-16.488;2023-07-20T06:21:46;98911.78;;;23.85;63.28
63009;BME280;49099;28.428;-16.488;2023-07-20T06:24:13;98901.72;;;23.86;63.73
63009;BME280;49099;28.428;-16.488;2023-07-20T06:26:40;98904.09;;;23.87;63.77
63009;BME280;49099;28.428;-16.488;2023-07-20T06:29:08;98919.53;;;23.87;63.70
63009;BME280;49099;28.428;-16.488;2023-07-20T06:31:36;98914.56;;;23.89;63.63
63009;BME280;49099;28.428;-16.488;2023-07-20T06:34:03;98913.47;;;23.90;63.12
63009;BME280;49099;28.428;-16.488;2023-07-20T06:36:31;98910.28;;;23.88;63.63
63009;BME280;49099;28.428;-16.488;2023-07-20T06:39:04;98912.69;;;23.89;63.81
63009;BME280;49099;28.428;-16.488;2023-07-20T06:41:36;98909.63;;;23.91;64.04
63009;BME280;49099;28.428;-16.488;2023-07-20T06:44:06;98908.03;;;23.90;63.69
63009;BME280;49099;28.428;-16.488;2023-07-20T06:46:34;98910.50;;;23.95;63.51
63009;BME280;49099;28.428;-16.488;2023-07-20T06:49:02;98910.41;;;23.92;63.38
63009;BME280;49099;28.428;-16.488;2023-07-20T06:51:32;98905.56;;;23.85;63.61
63009;BME280;49099;28.428;-16.488;2023-07-20T06:53:59;98904.09;;;23.87;63.63
63009;BME280;49099;28.428;-16.488;2023-07-20T06:56:26;98911.88;;;23.89;63.58
63009;BME280;49099;28.428;-16.488;2023-07-20T06:58:55;98910.50;;;23.95;63.39
63009;BME280;49099;28.428;-16.488;2023-07-20T07:01:22;98913.69;;;23.97;62.48
63009;BME280;49099;28.428;-16.488;2023-07-20T07:03:49;98916.13;;;24.02;62.47
63009;BME280;49099;28.428;-16.488;2023-07-20T07:06:21;98910.03;;;24.05;61.64
63009;BME280;49099;28.428;-16.488;2023-07-20T07:08:50;98908.13;;;24.06;61.31
63009;BME280;49099;28.428;-16.488;2023-07-20T07:11:17;98905.50;;;24.09;61.18
63009;BME280;49099;28.428;-16.488;2023-07-20T07:13:45;98911.84;;;24.13;60.80
63009;BME280;49099;28.428;-16.488;2023-07-20T07:16:13;98925.59;;;24.08;61.30
63009;BME280;49099;28.428;-16.488;2023-07-20T07:18:47;98921.56;;;24.02;61.43
63009;BME280;49099;28.428;-16.488;2023-07-20T07:21:14;98927.09;;;24.06;61.06
63009;BME280;49099;28.428;-16.488;2023-07-20T07:23:41;98926.19;;;24.02;62.26
63009;BME280;49099;28.428;-16.488;2023-07-20T07:26:09;98923.59;;;23.93;63.00
63009;BME280;49099;28.428;-16.488;2023-07-20T07:28:37;98919.53;;;23.87;63.15
63009;BME280;49099;28.428;-16.488;2023-07-20T07:31:07;98916.19;;;23.78;63.31
63009;BME280;49099;28.428;-16.488;2023-07-20T07:33:34;98913.03;;;23.76;63.53
63009;BME280;49099;28.428;-16.488;2023-07-20T07:36:02;98920.03;;;23.77;63.72
63009;BME280;49099;28.428;-16.488;2023-07-20T07:38:29;98924.75;;;23.80;63.53
63009;BME280;49099;28.428;-16.488;2023-07-20T07:41:16;98917.09;;;23.82;62.78
63009;BME280;49099;28.428;-16.488;2023-07-20T07:43:44;98918.66;;;23.83;62.96
63009;BME280;49099;28.428;-16.488;2023-07-20T07:46:11;98922.94;;;23.84;63.05
63009;BME280;49099;28.428;-16.488;2023-07-20T07:48:38;98910.06;;;23.81;62.98
63009;BME280;49099;28.428;-16.488;2023-07-20T07:51:05;98922.50;;;23.82;62.59
63009;BME280;49099;28.428;-16.488;2023-07-20T07:53:32;98916.19;;;23.78;62.21
63009;BME280;49099;28.428;-16.488;2023-07-20T07:56:00;98921.72;;;23.81;62.05
63009;BME280;49099;28.428;-16.488;2023-07-20T07:58:27;98924.88;;;23.83;61.59
63009;BME280;49099;28.428;-16.488;2023-07-20T08:00:54;98934.34;;;23.89;61.30
63009;BME280;49099;28.428;-16.488;2023-07-20T08:03:21;98935.00;;;23.86;61.95
63009;BME280;49099;28.428;-16.488;2023-07-20T08:05:51;98934.91;;;23.83;61.55
63009;BME280;49099;28.428;-16.488;2023-07-20T08:08:18;98933.34;;;23.82;61.43
63009;BME280;49099;28.428;-16.488;2023-07-20T08:10:46;98940.13;;;23.76;61.01
63009;BME280;49099;28.428;-16.488;2023-07-20T08:13:14;98939.41;;;23.79;61.30
63009;BME280;49099;28.428;-16.488;2023-07-20T08:15:49;98945.84;;;23.86;60.85
63009;BME280;49099;28.428;-16.488;2023-07-20T08:18:17;98934.13;;;23.82;60.78
63009;BME280;49099;28.428;-16.488;2023-07-20T08:20:45;98946.41;;;23.80;60.81
63009;BME280;49099;28.428;-16.488;2023-07-20T08:23:12;98941.91;;;23.84;60.76
63009;BME280;49099;28.428;-16.488;2023-07-20T08:25:40;98933.88;;;23.87;60.68
63009;BME280;49099;28.428;-16.488;2023-07-20T08:28:11;98945.28;;;23.93;60.81
63009;BME280;49099;28.428;-16.488;2023-07-20T08:30:48;98947.56;;;23.91;61.35
63009;BME280;49099;28.428;-16.488;2023-07-20T08:33:17;98946.84;;;23.94;61.75
63009;BME280;49099;28.428;-16.488;2023-07-20T08:35:46;98945.06;;;23.86;61.99
63009;BME280;49099;28.428;-16.488;2023-07-20T08:38:13;98949.91;;;23.93;61.88
63009;BME280;49099;28.428;-16.488;2023-07-20T08:40:42;98949.91;;;23.93;61.80
63009;BME280;49099;28.428;-16.488;2023-07-20T08:43:14;98959.03;;;23.88;61.08
63009;BME280;49099;28.428;-16.488;2023-07-20T08:45:46;98963.22;;;23.73;61.04
63009;BME280;49099;28.428;-16.488;2023-07-20T08:48:15;98962.56;;;23.76;60.54
63009;BME280;49099;28.428;-16.488;2023-07-20T08:50:44;98963.59;;;23.84;60.59
63009;BME280;49099;28.428;-16.488;2023-07-20T08:53:12;98966.94;;;23.93;59.96
63009;BME280;49099;28.428;-16.488;2023-07-20T08:55:44;98961.97;;;23.95;59.73
63009;BME280;49099;28.428;-16.488;2023-07-20T08:58:12;98961.06;;;24.03;60.17
63009;BME280;49099;28.428;-16.488;2023-07-20T09:00:42;98956.78;;;24.02;60.29
63009;BME280;49099;28.428;-16.488;2023-07-20T09:03:12;98967.88;;;23.97;60.44
63009;BME280;49099;28.428;-16.488;2023-07-20T09:05:41;98951.81;;;24.04;61.00
63009;BME280;49099;28.428;-16.488;2023-07-20T09:08:08;98964.91;;;24.14;60.52
63009;BME280;49099;28.428;-16.488;2023-07-20T09:10:36;98964.84;;;24.27;60.51
63009;BME280;49099;28.428;-16.488;2023-07-20T09:13:03;98961.91;;;24.32;61.40
63009;BME280;49099;28.428;-16.488;2023-07-20T09:15:30;98953.91;;;24.35;60.91
63009;BME280;49099;28.428;-16.488;2023-07-20T09:18:01;98961.91;;;24.32;60.77
63009;BME280;49099;28.428;-16.488;2023-07-20T09:20:31;98961.25;;;24.35;60.10
63009;BME280;49099;28.428;-16.488;2023-07-20T09:22:59;98966.09;;;24.41;60.33
63009;BME280;49099;28.428;-16.488;2023-07-20T09:25:27;98965.50;;;24.48;60.04
63009;BME280;49099;28.428;-16.488;2023-07-20T09:27:57;98957.66;;;24.59;59.62
63009;BME280;49099;28.428;-16.488;2023-07-20T09:30:25;98963.34;;;24.54;59.86
63009;BME280;49099;28.428;-16.488;2023-07-20T09:32:55;98961.88;;;24.56;59.70
63009;BME280;49099;28.428;-16.488;2023-07-20T09:35:23;98961.97;;;24.60;60.13
63009;BME280;49099;28.428;-16.488;2023-07-20T09:37:59;98966.63;;;24.59;59.76
63009;BME280;49099;28.428;-16.488;2023-07-20T09:40:29;98966.25;;;24.61;61.25
63009;BME280;49099;28.428;-16.488;2023-07-20T09:42:59;98969.97;;;24.68;62.54
63009;BME280;49099;28.428;-16.488;2023-07-20T09:45:33;98966.97;;;24.73;63.71
63009;BME280;49099;28.428;-16.488;2023-07-20T09:48:07;98962.47;;;24.78;63.25
63009;BME280;49099;28.428;-16.488;2023-07-20T09:50:42;98973.97;;;24.74;63.01
63009;BME280;49099;28.428;-16.488;2023-07-20T09:53:12;98964.63;;;24.72;62.62
63009;BME280;49099;28.428;-16.488;2023-07-20T09:55:44;98969.69;;;24.73;63.25
63009;BME280;49099;28.428;-16.488;2023-07-20T09:58:11;98970.19;;;24.63;62.55
63009;BME280;49099;28.428;-16.488;2023-07-20T10:00:40;98973.81;;;24.67;62.33
63009;BME280;49099;28.428;-16.488;2023-07-20T10:03:10;98966.97;;;24.73;61.67
63009;BME280;49099;28.428;-16.488;2023-07-20T10:05:43;98976.25;;;24.72;62.04
63009;BME280;49099;28.428;-16.488;2023-07-20T10:08:12;98967.78;;;24.74;61.86
63009;BME280;49099;28.428;-16.488;2023-07-20T10:10:46;98971.03;;;24.80;61.66
63009;BME280;49099;28.428;-16.488;2023-07-20T10:13:18;98969.66;;;24.86;61.17
63009;BME280;49099;28.428;-16.488;2023-07-20T10:15:50;98966.94;;;24.86;61.07
63009;BME280;49099;28.428;-16.488;2023-07-20T10:20:51;98967.69;;;24.98;59.99
63009;BME280;49099;28.428;-16.488;2023-07-20T10:23:22;98957.91;;;25.10;59.45
63009;BME280;49099;28.428;-16.488;2023-07-20T10:25:50;98967.91;;;25.21;59.49
63009;BME280;49099;28.428;-16.488;2023-07-20T10:28:17;98969.22;;;25.27;58.92
63009;BME280;49099;28.428;-16.488;2023-07-20T10:30:45;98968.59;;;25.34;58.49
63009;BME280;49099;28.428;-16.488;2023-07-20T10:33:13;98964.84;;;25.39;58.41
63009;BME280;49099;28.428;-16.488;2023-07-20T10:36:03;98971.31;;;25.50;57.63
63009;BME280;49099;28.428;-16.488;2023-07-20T10:41:38;98965.88;;;25.50;57.98
63009;BME280;49099;28.428;-16.488;2023-07-20T10:44:08;98966.31;;;25.52;57.48
63009;BME280;49099;28.428;-16.488;2023-07-20T10:49:08;98961.69;;;25.37;57.97
63009;BME280;49099;28.428;-16.488;2023-07-20T10:51:48;98973.97;;;25.31;56.80
63009;BME280;49099;28.428;-16.488;2023-07-20T10:56:50;98974.63;;;25.27;57.25
63009;BME280;49099;28.428;-16.488;2023-07-20T10:59:36;98971.69;;;25.33;56.93
63009;BME280;49099;28.428;-16.488;2023-07-20T11:02:08;98970.97;;;25.36;56.52
63009;BME280;49099;28.428;-16.488;2023-07-20T11:04:43;98977.03;;;25.45;56.17
63009;BME280;49099;28.428;-16.488;2023-07-20T11:07:15;98978.31;;;25.51;55.63
63009;BME280;49099;28.428;-16.488;2023-07-20T11:09:43;98980.63;;;25.49;55.83
63009;BME280;49099;28.428;-16.488;2023-07-20T11:12:17;98980.78;;;25.56;56.58
63009;BME280;49099;28.428;-16.488;2023-07-20T11:14:56;98972.63;;;25.56;56.51
63009;BME280;49099;28.428;-16.488;2023-07-20T11:17:30;98971.66;;;25.64;56.72
63009;BME280;49099;28.428;-16.488;2023-07-20T11:20:01;98977.63;;;25.54;57.09
63009;BME280;49099;28.428;-16.488;2023-07-20T11:22:33;98962.03;;;25.67;57.13
63009;BME280;49099;28.428;-16.488;2023-07-20T11:25:00;98968.78;;;25.73;57.01
63009;BME280;49099;28.428;-16.488;2023-07-20T11:27:27;98963.38;;;25.73;56.79
63009;BME280;49099;28.428;-16.488;2023-07-20T11:29:56;98968.06;;;25.60;56.98
63009;BME280;49099;28.428;-16.488;2023-07-20T11:32:24;98970.09;;;25.63;57.28
63009;BME280;49099;28.428;-16.488;2023-07-20T11:34:51;98963.69;;;25.55;57.61
63009;BME280;49099;28.428;-16.488;2023-07-20T11:37:19;98961.00;;;25.55;57.95
63009;BME280;49099;28.428;-16.488;2023-07-20T11:39:46;98966.00;;;25.53;57.98
63009;BME280;49099;28.428;-16.488;2023-07-20T11:42:13;98966.06;;;25.57;57.79
63009;BME280;49099;28.428;-16.488;2023-07-20T11:44:44;98950.19;;;25.59;56.80
63009;BME280;49099;28.428;-16.488;2023-07-20T11:47:11;98958.97;;;25.52;57.36
63009;BME280;49099;28.428;-16.488;2023-07-20T11:49:43;98959.06;;;25.56;57.36
63009;BME280;49099;28.428;-16.488;2023-07-20T11:52:15;98952.41;;;25.69;56.78
63009;BME280;49099;28.428;-16.488;2023-07-20T11:54:43;98951.88;;;25.79;56.47
63009;BME280;49099;28.428;-16.488;2023-07-20T11:57:18;98945.72;;;25.67;55.34
63009;BME280;49099;28.428;-16.488;2023-07-20T12:00:00;98938.34;;;25.67;56.11
63009;BME280;49099;28.428;-16.488;2023-07-20T12:02:30;98942.22;;;25.66;56.06
63009;BME280;49099;28.428;-16.488;2023-07-20T12:04:58;98944.44;;;25.76;55.36
63009;BME280;49099;28.428;-16.488;2023-07-20T12:07:27;98936.34;;;25.80;55.03
63009;BME280;49099;28.428;-16.488;2023-07-20T12:10:11;98938.13;;;25.72;55.17
63009;BME280;49099;28.428;-16.488;2023-07-20T12:12:42;98936.28;;;25.76;55.24
63009;BME280;49099;28.428;-16.488;2023-07-20T12:17:45;98939.50;;;25.82;54.23
63009;BME280;49099;28.428;-16.488;2023-07-20T12:20:13;98935.16;;;25.77;54.57
63009;BME280;49099;28.428;-16.488;2023-07-20T12:22:43;98929.41;;;25.82;54.08
63009;BME280;49099;28.428;-16.488;2023-07-20T12:25:10;98925.66;;;25.87;54.32
63009;BME280;49099;28.428;-16.488;2023-07-20T12:27:37;98932.28;;;25.90;54.46
63009;BME280;49099;28.428;-16.488;2023-07-20T12:30:06;98928.25;;;25.99;54.43
63009;BME280;49099;28.428;-16.488;2023-07-20T12:32:33;98925.59;;;26.03;54.17
63009;BME280;49099;28.428;-16.488;2023-07-20T12:35:01;98925.97;;;26.01;54.58
63009;BME280;49099;28.428;-16.488;2023-07-20T12:37:28;98926.97;;;26.13;54.32
63009;BME280;49099;28.428;-16.488;2023-07-20T12:39:56;98923.97;;;26.18;53.96
63009;BME280;49099;28.428;-16.488;2023-07-20T12:42:23;98925.19;;;26.20;53.63
63009;BME280;49099;28.428;-16.488;2023-07-20T12:44:50;98925.56;;;26.19;54.16
63009;BME280;49099;28.428;-16.488;2023-07-20T12:47:18;98929.47;;;26.21;54.04
63009;BME280;49099;28.428;-16.488;2023-07-20T12:49:45;98929.47;;;26.21;54.61
63009;BME280;49099;28.428;-16.488;2023-07-20T12:52:13;98923.72;;;26.23;55.10
63009;BME280;49099;28.428;-16.488;2023-07-20T12:54:41;98923.19;;;26.17;55.36
63009;BME280;49099;28.428;-16.488;2023-07-20T12:57:08;98925.41;;;26.11;56.14
63009;BME280;49099;28.428;-16.488;2023-07-20T12:59:38;98917.59;;;26.10;56.72
63009;BME280;49099;28.428;-16.488;2023-07-20T13:02:05;98916.41;;;26.27;56.85
63009;BME280;49099;28.428;-16.488;2023-07-20T13:04:33;98916.59;;;26.37;56.79
63009;BME280;49099;28.428;-16.488;2023-07-20T13:07:00;98921.66;;;26.55;55.89
63009;BME280;49099;28.428;-16.488;2023-07-20T13:09:47;98913.03;;;26.53;55.58
63009;BME280;49099;28.428;-16.488;2023-07-20T13:12:14;98918.22;;;26.38;53.44